sensor_id;sensor_type;location;lat;lon;timestamp;temperature;humidity
51783;DHT22;37845;53.196;5.638;2023-02-11T00:02:23;6.10;99.90
51783;DHT22;37845;53.196;5.638;2023-02-11T00:04:52;6.20;99.90
51783;DHT22;37845;53.196;5.638;2023-02-11T00:07:17;6.30;99.90
51783;DHT22;37845;53.196;5.638;2023-02-11T00:09:43;7.00;99.90
51783;DHT22;37845;53.196;5.638;2023-02-11T00:12:08;7.30;99.90
51783;DHT22;37845;53.196;5.638;2023-02-11T00:14:34;6.30;99.90
51783;DHT22;37845;53.196;5.638;2023-02-11T00:17:00;6.20;99.90
51783;DHT22;37845;53.196;5.638;2023-02-11T00:19:25;6.20;99.90
51783;DHT22;37845;53.196;5.638;2023-02-11T00:21:51;6.20;99.90
51783;DHT22;37845;53.196;5.638;2023-02-11T00:24:16;6.20;99.90
51783;DHT22;37845;53.196;5.638;2023-02-11T00:26:42;7.30;99.90
51783;DHT22;37845;53.196;5.638;2023-02-11T00:29:09;6.20;99.90
51783;DHT22;37845;53.196;5.638;2023-02-11T00:31:34;5.60;99.90
51783;DHT22;37845;53.196;5.638;2023-02-11T00:34:00;6.20;99.90
51783;DHT22;37845;53.196;5.638;2023-02-11T00:36:26;7.50;99.90
51783;DHT22;37845;53.196;5.638;2023-02-11T00:38:52;6.30;99.90
51783;DHT22;37845;53.196;5.638;2023-02-11T00:41:19;6.30;99.90
51783;DHT22;37845;53.196;5.638;2023-02-11T00:43:45;7.10;99.90
51783;DHT22;37845;53.196;5.638;2023-02-11T00:46:11;6.30;99.90
51783;DHT22;37845;53.196;5.638;2023-02-11T00:48:36;6.30;99.90
51783;DHT22;37845;53.196;5.638;2023-02-11T00:51:02;7.40;99.90
51783;DHT22;37845;53.196;5.638;2023-02-11T00:53:31;6.40;99.90
51783;DHT22;37845;53.196;5.638;2023-02-11T00:55:57;6.40;99.90
51783;DHT22;37845;53.196;5.638;2023-02-11T00:58:23;6.40;99.90
51783;DHT22;37845;53.196;5.638;2023-02-11T01:00:48;7.00;99.90
51783;DHT22;37845;53.196;5.638;2023-02-11T01:03:14;6.40;99.90
51783;DHT22;37845;53.196;5.638;2023-02-11T01:05:40;6.50;99.90
51783;DHT22;37845;53.196;5.638;2023-02-11T01:08:05;6.50;99.90
51783;DHT22;37845;53.196;5.638;2023-02-11T01:10:31;6.50;99.90
51783;DHT22;37845;53.196;5.638;2023-02-11T01:12:57;7.30;99.90
51783;DHT22;37845;53.196;5.638;2023-02-11T01:15:22;6.60;99.90
51783;DHT22;37845;53.196;5.638;2023-02-11T01:17:48;5.80;99.90
51783;DHT22;37845;53.196;5.638;2023-02-11T01:20:18;6.60;99.90
51783;DHT22;37845;53.196;5.638;2023-02-11T01:22:44;6.70;99.90
51783;DHT22;37845;53.196;5.638;2023-02-11T01:25:10;7.20;99.90
51783;DHT22;37845;53.196;5.638;2023-02-11T01:27:35;7.20;99.90
51783;DHT22;37845;53.196;5.638;2023-02-11T01:30:02;6.80;99.90
51783;DHT22;37845;53.196;5.638;2023-02-11T01:32:27;6.80;99.90
51783;DHT22;37845;53.196;5.638;2023-02-11T01:34:53;6.90;99.90
51783;DHT22;37845;53.196;5.638;2023-02-11T01:37:24;6.90;99.90
51783;DHT22;37845;53.196;5.638;2023-02-11T01:39:50;6.50;99.90
51783;DHT22;37845;53.196;5.638;2023-02-11T01:42:16;7.00;99.90
51783;DHT22;37845;53.196;5.638;2023-02-11T01:44:42;7.00;99.90
51783;DHT22;37845;53.196;5.638;2023-02-11T01:47:08;7.00;99.90
51783;DHT22;37845;53.196;5.638;2023-02-11T01:49:44;7.10;99.90
51783;DHT22;37845;53.196;5.638;2023-02-11T01:54:39;7.10;99.90
51783;DHT22;37845;53.196;5.638;2023-02-11T01:57:26;7.10;99.90
51783;DHT22;37845;53.196;5.638;2023-02-11T02:02:19;7.10;99.90
51783;DHT22;37845;53.196;5.638;2023-02-11T02:04:51;7.10;99.90
51783;DHT22;37845;53.196;5.638;2023-02-11T02:07:20;7.10;99.90
51783;DHT22;37845;53.196;5.638;2023-02-11T02:09:48;7.20;99.90
51783;DHT22;37845;53.196;5.638;2023-02-11T02:12:15;7.20;99.90
51783;DHT22;37845;53.196;5.638;2023-02-11T02:14:41;7.20;99.90
51783;DHT22;37845;53.196;5.638;2023-02-11T02:17:09;7.20;99.90
51783;DHT22;37845;53.196;5.638;2023-02-11T02:32:35;7.30;99.90
51783;DHT22;37845;53.196;5.638;2023-02-11T02:37:52;7.30;99.90
51783;DHT22;37845;53.196;5.638;2023-02-11T02:40:24;7.40;99.90
51783;DHT22;37845;53.196;5.638;2023-02-11T02:42:51;7.40;99.90
51783;DHT22;37845;53.196;5.638;2023-02-11T02:45:17;7.40;99.90
51783;DHT22;37845;53.196;5.638;2023-02-11T02:47:43;7.40;99.90
51783;DHT22;37845;53.196;5.638;2023-02-11T02:50:09;7.40;99.90
51783;DHT22;37845;53.196;5.638;2023-02-11T02:52:57;7.40;99.90
51783;DHT22;37845;53.196;5.638;2023-02-11T02:58:04;7.40;99.90
51783;DHT22;37845;53.196;5.638;2023-02-11T03:05:29;7.80;99.90
51783;DHT22;37845;53.196;5.638;2023-02-11T03:08:01;7.50;99.90
51783;DHT22;37845;53.196;5.638;2023-02-11T03:10:46;7.50;99.90
51783;DHT22;37845;53.196;5.638;2023-02-11T03:13:13;7.40;99.90
51783;DHT22;37845;53.196;5.638;2023-02-11T03:15:44;7.80;99.90
51783;DHT22;37845;53.196;5.638;2023-02-11T03:18:12;7.40;99.90
51783;DHT22;37845;53.196;5.638;2023-02-11T03:20:38;7.50;99.90
51783;DHT22;37845;53.196;5.638;2023-02-11T03:23:10;7.50;99.90
51783;DHT22;37845;53.196;5.638;2023-02-11T03:25:38;7.50;99.90
51783;DHT22;37845;53.196;5.638;2023-02-11T03:28:17;7.50;99.90
51783;DHT22;37845;53.196;5.638;2023-02-11T03:30:48;7.50;99.90
51783;DHT22;37845;53.196;5.638;2023-02-11T03:35:42;7.50;99.90
51783;DHT22;37845;53.196;5.638;2023-02-11T03:38:17;7.50;99.90
51783;DHT22;37845;53.196;5.638;2023-02-11T03:40:43;7.50;99.90
51783;DHT22;37845;53.196;5.638;2023-02-11T03:43:20;7.50;99.90
51783;DHT22;37845;53.196;5.638;2023-02-11T03:45:48;7.50;99.90
51783;DHT22;37845;53.196;5.638;2023-02-11T03:48:22;7.50;99.90
51783;DHT22;37845;53.196;5.638;2023-02-11T03:50:47;7.40;99.90
51783;DHT22;37845;53.196;5.638;2023-02-11T03:53:14;7.40;99.90
51783;DHT22;37845;53.196;5.638;2023-02-11T03:55:41;7.50;99.90
51783;DHT22;37845;53.196;5.638;2023-02-11T03:58:08;8.20;99.90
51783;DHT22;37845;53.196;5.638;2023-02-11T04:00:35;7.50;99.90
51783;DHT22;37845;53.196;5.638;2023-02-11T04:03:02;7.50;99.90
51783;DHT22;37845;53.196;5.638;2023-02-11T04:05:28;7.50;99.90
51783;DHT22;37845;53.196;5.638;2023-02-11T04:07:53;7.50;99.90
51783;DHT22;37845;53.196;5.638;2023-02-11T04:10:19;7.50;99.90
51783;DHT22;37845;53.196;5.638;2023-02-11T04:12:45;7.50;99.90
51783;DHT22;37845;53.196;5.638;2023-02-11T04:15:10;7.50;99.90
51783;DHT22;37845;53.196;5.638;2023-02-11T04:17:36;7.50;99.90
51783;DHT22;37845;53.196;5.638;2023-02-11T04:20:02;7.50;99.90
51783;DHT22;37845;53.196;5.638;2023-02-11T04:22:28;7.50;99.90
51783;DHT22;37845;53.196;5.638;2023-02-11T04:24:53;8.20;99.90
51783;DHT22;37845;53.196;5.638;2023-02-11T04:27:19;8.10;99.90
51783;DHT22;37845;53.196;5.638;2023-02-11T04:29:45;7.50;99.90
51783;DHT22;37845;53.196;5.638;2023-02-11T04:32:10;7.50;99.90
51783;DHT22;37845;53.196;5.638;2023-02-11T04:34:36;7.50;99.90
51783;DHT22;37845;53.196;5.638;2023-02-11T04:37:02;7.50;99.90
51783;DHT22;37845;53.196;5.638;2023-02-11T04:39:27;7.50;99.90
51783;DHT22;37845;53.196;5.638;2023-02-11T04:41:53;7.50;99.90
51783;DHT22;37845;53.196;5.638;2023-02-11T04:44:18;7.50;99.90
51783;DHT22;37845;53.196;5.638;2023-02-11T04:46:44;7.50;99.90
51783;DHT22;37845;53.196;5.638;2023-02-11T04:49:11;7.50;99.90
51783;DHT22;37845;53.196;5.638;2023-02-11T04:51:37;7.50;99.90
51783;DHT22;37845;53.196;5.638;2023-02-11T04:54:03;7.50;99.90
51783;DHT22;37845;53.196;5.638;2023-02-11T04:56:28;7.50;99.90
51783;DHT22;37845;53.196;5.638;2023-02-11T04:58:56;7.60;99.90
51783;DHT22;37845;53.196;5.638;2023-02-11T05:01:22;7.60;99.90
51783;DHT22;37845;53.196;5.638;2023-02-11T05:03:47;7.60;99.90
51783;DHT22;37845;53.196;5.638;2023-02-11T05:06:13;7.70;99.90
51783;DHT22;37845;53.196;5.638;2023-02-11T05:08:39;7.70;99.90
51783;DHT22;37845;53.196;5.638;2023-02-11T05:11:05;8.50;99.90
51783;DHT22;37845;53.196;5.638;2023-02-11T05:13:30;7.90;99.90
51783;DHT22;37845;53.196;5.638;2023-02-11T05:15:56;7.70;99.90
51783;DHT22;37845;53.196;5.638;2023-02-11T05:18:22;7.70;99.90
51783;DHT22;37845;53.196;5.638;2023-02-11T05:20:47;7.80;99.90
51783;DHT22;37845;53.196;5.638;2023-02-11T05:23:13;7.80;99.90
51783;DHT22;37845;53.196;5.638;2023-02-11T05:25:39;7.80;99.90
51783;DHT22;37845;53.196;5.638;2023-02-11T05:28:05;7.70;99.90
51783;DHT22;37845;53.196;5.638;2023-02-11T05:30:30;7.80;99.90
51783;DHT22;37845;53.196;5.638;2023-02-11T05:32:56;7.80;99.90
51783;DHT22;37845;53.196;5.638;2023-02-11T05:35:22;7.70;99.90
51783;DHT22;37845;53.196;5.638;2023-02-11T05:37:47;7.70;99.90
51783;DHT22;37845;53.196;5.638;2023-02-11T05:40:13;7.70;99.90
51783;DHT22;37845;53.196;5.638;2023-02-11T05:42:39;7.70;99.90
51783;DHT22;37845;53.196;5.638;2023-02-11T05:45:05;8.50;99.90
51783;DHT22;37845;53.196;5.638;2023-02-11T05:47:30;7.50;99.90
51783;DHT22;37845;53.196;5.638;2023-02-11T05:49:56;7.50;99.90
51783;DHT22;37845;53.196;5.638;2023-02-11T05:52:22;8.50;99.90
51783;DHT22;37845;53.196;5.638;2023-02-11T05:54:48;7.40;99.90
51783;DHT22;37845;53.196;5.638;2023-02-11T05:57:14;7.30;99.90
51783;DHT22;37845;53.196;5.638;2023-02-11T05:59:40;7.40;99.90
51783;DHT22;37845;53.196;5.638;2023-02-11T06:02:06;7.30;99.90
51783;DHT22;37845;53.196;5.638;2023-02-11T06:04:32;7.30;99.90
51783;DHT22;37845;53.196;5.638;2023-02-11T06:06:58;7.40;99.90
51783;DHT22;37845;53.196;5.638;2023-02-11T06:09:24;7.30;99.90
51783;DHT22;37845;53.196;5.638;2023-02-11T06:11:49;7.30;99.90
51783;DHT22;37845;53.196;5.638;2023-02-11T06:14:15;7.30;99.90
51783;DHT22;37845;53.196;5.638;2023-02-11T06:16:41;7.40;99.90
51783;DHT22;37845;53.196;5.638;2023-02-11T06:19:06;7.40;99.90
51783;DHT22;37845;53.196;5.638;2023-02-11T06:21:32;7.30;99.90
51783;DHT22;37845;53.196;5.638;2023-02-11T06:23:57;7.30;99.90
51783;DHT22;37845;53.196;5.638;2023-02-11T06:26:23;8.30;99.90
51783;DHT22;37845;53.196;5.638;2023-02-11T06:28:49;7.30;99.90
51783;DHT22;37845;53.196;5.638;2023-02-11T06:31:15;7.40;99.90
51783;DHT22;37845;53.196;5.638;2023-02-11T06:33:40;7.40;99.90
51783;DHT22;37845;53.196;5.638;2023-02-11T06:36:13;7.40;99.90
51783;DHT22;37845;53.196;5.638;2023-02-11T06:38:39;7.30;99.90
51783;DHT22;37845;53.196;5.638;2023-02-11T06:41:05;7.40;99.90
51783;DHT22;37845;53.196;5.638;2023-02-11T06:43:30;7.40;99.90
51783;DHT22;37845;53.196;5.638;2023-02-11T06:45:56;8.50;99.90
51783;DHT22;37845;53.196;5.638;2023-02-11T06:48:22;8.00;99.90
51783;DHT22;37845;53.196;5.638;2023-02-11T06:50:47;7.40;99.90
51783;DHT22;37845;53.196;5.638;2023-02-11T06:53:13;7.40;99.90
51783;DHT22;37845;53.196;5.638;2023-02-11T06:55:39;7.40;99.90
51783;DHT22;37845;53.196;5.638;2023-02-11T06:58:04;8.10;99.90
51783;DHT22;37845;53.196;5.638;2023-02-11T07:00:30;7.20;99.90
51783;DHT22;37845;53.196;5.638;2023-02-11T07:02:56;7.30;99.90
51783;DHT22;37845;53.196;5.638;2023-02-11T07:05:21;7.40;99.90
51783;DHT22;37845;53.196;5.638;2023-02-11T07:07:47;8.20;99.90
51783;DHT22;37845;53.196;5.638;2023-02-11T07:10:12;8.50;99.90
51783;DHT22;37845;53.196;5.638;2023-02-11T07:12:38;8.20;99.90
51783;DHT22;37845;53.196;5.638;2023-02-11T07:15:04;7.20;99.90
51783;DHT22;37845;53.196;5.638;2023-02-11T07:17:30;7.20;99.90
51783;DHT22;37845;53.196;5.638;2023-02-11T07:19:56;7.20;99.90
51783;DHT22;37845;53.196;5.638;2023-02-11T07:22:22;7.10;99.90
51783;DHT22;37845;53.196;5.638;2023-02-11T07:24:47;7.10;99.90
51783;DHT22;37845;53.196;5.638;2023-02-11T07:27:13;7.10;99.90
51783;DHT22;37845;53.196;5.638;2023-02-11T07:29:38;7.20;99.90
51783;DHT22;37845;53.196;5.638;2023-02-11T07:32:05;7.20;99.90
51783;DHT22;37845;53.196;5.638;2023-02-11T07:34:31;7.20;99.90
51783;DHT22;37845;53.196;5.638;2023-02-11T07:36:57;7.20;99.90
51783;DHT22;37845;53.196;5.638;2023-02-11T07:39:23;7.20;99.90
51783;DHT22;37845;53.196;5.638;2023-02-11T07:41:52;7.20;99.90
51783;DHT22;37845;53.196;5.638;2023-02-11T07:44:17;7.20;99.90
51783;DHT22;37845;53.196;5.638;2023-02-11T07:46:43;7.70;99.90
51783;DHT22;37845;53.196;5.638;2023-02-11T07:49:10;7.20;99.90
51783;DHT22;37845;53.196;5.638;2023-02-11T07:51:35;8.10;99.90
51783;DHT22;37845;53.196;5.638;2023-02-11T07:54:01;7.20;99.90
51783;DHT22;37845;53.196;5.638;2023-02-11T07:56:27;8.20;99.90
51783;DHT22;37845;53.196;5.638;2023-02-11T07:58:54;7.30;99.90
51783;DHT22;37845;53.196;5.638;2023-02-11T08:01:22;7.70;99.90
51783;DHT22;37845;53.196;5.638;2023-02-11T08:03:49;8.00;99.90
51783;DHT22;37845;53.196;5.638;2023-02-11T08:06:16;7.30;99.90
51783;DHT22;37845;53.196;5.638;2023-02-11T08:08:42;7.30;99.90
51783;DHT22;37845;53.196;5.638;2023-02-11T08:11:12;7.50;99.90
51783;DHT22;37845;53.196;5.638;2023-02-11T08:13:38;7.40;99.90
51783;DHT22;37845;53.196;5.638;2023-02-11T08:16:04;7.40;99.90
51783;DHT22;37845;53.196;5.638;2023-02-11T08:18:30;7.40;99.90
51783;DHT22;37845;53.196;5.638;2023-02-11T08:20:56;7.40;99.90
51783;DHT22;37845;53.196;5.638;2023-02-11T08:23:21;7.50;99.90
51783;DHT22;37845;53.196;5.638;2023-02-11T08:25:47;7.40;99.90
51783;DHT22;37845;53.196;5.638;2023-02-11T08:28:13;7.50;99.90
51783;DHT22;37845;53.196;5.638;2023-02-11T08:30:38;7.50;99.90
51783;DHT22;37845;53.196;5.638;2023-02-11T08:33:04;7.60;99.90
51783;DHT22;37845;53.196;5.638;2023-02-11T08:35:29;7.60;99.90
51783;DHT22;37845;53.196;5.638;2023-02-11T08:37:55;8.70;99.90
51783;DHT22;37845;53.196;5.638;2023-02-11T08:40:21;7.70;99.90
51783;DHT22;37845;53.196;5.638;2023-02-11T08:42:47;7.70;99.90
51783;DHT22;37845;53.196;5.638;2023-02-11T08:45:12;8.10;99.90
51783;DHT22;37845;53.196;5.638;2023-02-11T08:47:38;7.70;99.90
51783;DHT22;37845;53.196;5.638;2023-02-11T08:50:04;7.60;99.90
51783;DHT22;37845;53.196;5.638;2023-02-11T08:52:30;7.70;99.90
51783;DHT22;37845;53.196;5.638;2023-02-11T08:54:55;7.80;99.90
51783;DHT22;37845;53.196;5.638;2023-02-11T08:57:21;7.70;99.90
51783;DHT22;37845;53.196;5.638;2023-02-11T08:59:47;7.70;99.90
51783;DHT22;37845;53.196;5.638;2023-02-11T09:02:12;7.80;99.90
51783;DHT22;37845;53.196;5.638;2023-02-11T09:04:38;7.80;99.90
51783;DHT22;37845;53.196;5.638;2023-02-11T09:07:05;7.80;99.90
51783;DHT22;37845;53.196;5.638;2023-02-11T09:09:30;7.80;99.90
51783;DHT22;37845;53.196;5.638;2023-02-11T09:11:56;7.80;99.90
51783;DHT22;37845;53.196;5.638;2023-02-11T09:14:23;7.90;99.90
51783;DHT22;37845;53.196;5.638;2023-02-11T09:16:49;7.90;99.90
51783;DHT22;37845;53.196;5.638;2023-02-11T09:19:18;7.90;99.90
51783;DHT22;37845;53.196;5.638;2023-02-11T09:21:44;7.90;99.90
51783;DHT22;37845;53.196;5.638;2023-02-11T09:24:10;8.00;99.90
51783;DHT22;37845;53.196;5.638;2023-02-11T09:26:36;8.00;99.90
51783;DHT22;37845;53.196;5.638;2023-02-11T09:29:02;8.00;99.90
51783;DHT22;37845;53.196;5.638;2023-02-11T09:31:31;8.10;99.90
51783;DHT22;37845;53.196;5.638;2023-02-11T09:33:58;8.00;99.90
51783;DHT22;37845;53.196;5.638;2023-02-11T09:36:25;8.10;99.90
51783;DHT22;37845;53.196;5.638;2023-02-11T09:38:51;8.00;99.90
51783;DHT22;37845;53.196;5.638;2023-02-11T09:44:03;8.10;99.90
51783;DHT22;37845;53.196;5.638;2023-02-11T09:46:31;8.10;99.90
51783;DHT22;37845;53.196;5.638;2023-02-11T09:57:36;7.20;99.90
51783;DHT22;37845;53.196;5.638;2023-02-11T10:00:16;8.40;99.90
51783;DHT22;37845;53.196;5.638;2023-02-11T10:08:10;7.30;99.90
51783;DHT22;37845;53.196;5.638;2023-02-11T10:10:49;8.30;99.90
51783;DHT22;37845;53.196;5.638;2023-02-11T10:15:54;8.40;99.90
51783;DHT22;37845;53.196;5.638;2023-02-11T10:24:02;8.50;99.90
51783;DHT22;37845;53.196;5.638;2023-02-11T10:26:30;8.60;99.90
51783;DHT22;37845;53.196;5.638;2023-02-11T10:28:58;8.60;99.90
51783;DHT22;37845;53.196;5.638;2023-02-11T10:31:25;8.70;99.90
51783;DHT22;37845;53.196;5.638;2023-02-11T10:33:57;9.50;99.90
51783;DHT22;37845;53.196;5.638;2023-02-11T10:36:28;8.60;99.90
51783;DHT22;37845;53.196;5.638;2023-02-11T10:38:54;8.60;99.90
51783;DHT22;37845;53.196;5.638;2023-02-11T10:41:23;8.60;99.90
51783;DHT22;37845;53.196;5.638;2023-02-11T10:43:51;8.50;99.90
51783;DHT22;37845;53.196;5.638;2023-02-11T10:46:17;8.50;99.90
51783;DHT22;37845;53.196;5.638;2023-02-11T10:48:47;8.50;99.90
51783;DHT22;37845;53.196;5.638;2023-02-11T10:51:24;8.60;99.90
51783;DHT22;37845;53.196;5.638;2023-02-11T10:56:33;9.00;99.90
51783;DHT22;37845;53.196;5.638;2023-02-11T11:01:50;7.60;99.90
51783;DHT22;37845;53.196;5.638;2023-02-11T11:04:26;8.90;99.90
51783;DHT22;37845;53.196;5.638;2023-02-11T11:07:17;8.90;99.90
51783;DHT22;37845;53.196;5.638;2023-02-11T11:12:24;9.10;99.90
51783;DHT22;37845;53.196;5.638;2023-02-11T11:14:57;9.20;99.90
51783;DHT22;37845;53.196;5.638;2023-02-11T11:17:24;9.20;99.90
51783;DHT22;37845;53.196;5.638;2023-02-11T11:20:00;9.20;99.90
51783;DHT22;37845;53.196;5.638;2023-02-11T11:22:37;9.20;99.90
51783;DHT22;37845;53.196;5.638;2023-02-11T11:25:03;9.20;99.90
51783;DHT22;37845;53.196;5.638;2023-02-11T11:27:29;9.30;99.90
51783;DHT22;37845;53.196;5.638;2023-02-11T11:29:55;9.30;99.90
51783;DHT22;37845;53.196;5.638;2023-02-11T11:32:22;9.30;99.90
51783;DHT22;37845;53.196;5.638;2023-02-11T11:34:52;9.30;99.90
51783;DHT22;37845;53.196;5.638;2023-02-11T11:42:33;9.40;99.90
51783;DHT22;37845;53.196;5.638;2023-02-11T11:45:05;9.30;99.90
51783;DHT22;37845;53.196;5.638;2023-02-11T11:50:41;9.50;99.90
51783;DHT22;37845;53.196;5.638;2023-02-11T11:53:15;9.50;99.90
51783;DHT22;37845;53.196;5.638;2023-02-11T11:56:02;9.50;99.90
51783;DHT22;37845;53.196;5.638;2023-02-11T11:58:29;9.50;99.90
51783;DHT22;37845;53.196;5.638;2023-02-11T12:03:54;9.50;99.90
51783;DHT22;37845;53.196;5.638;2023-02-11T12:06:31;9.50;99.90
51783;DHT22;37845;53.196;5.638;2023-02-11T12:16:56;9.60;99.90
51783;DHT22;37845;53.196;5.638;2023-02-11T12:24:37;9.70;99.90
51783;DHT22;37845;53.196;5.638;2023-02-11T12:27:54;9.60;99.90
51783;DHT22;37845;53.196;5.638;2023-02-11T12:42:37;9.60;99.90
51783;DHT22;37845;53.196;5.638;2023-02-11T12:48:11;9.60;99.90
51783;DHT22;37845;53.196;5.638;2023-02-11T12:53:32;9.50;99.90
51783;DHT22;37845;53.196;5.638;2023-02-11T12:56:04;9.00;99.90
51783;DHT22;37845;53.196;5.638;2023-02-11T12:58:30;9.40;99.90
51783;DHT22;37845;53.196;5.638;2023-02-11T13:01:18;9.40;99.90
51783;DHT22;37845;53.196;5.638;2023-02-11T13:03:55;9.40;99.90
51783;DHT22;37845;53.196;5.638;2023-02-11T13:06:28;9.40;99.90
51783;DHT22;37845;53.196;5.638;2023-02-11T13:08:59;9.30;99.90
51783;DHT22;37845;53.196;5.638;2023-02-11T13:11:27;9.40;99.90
51783;DHT22;37845;53.196;5.638;2023-02-11T13:13:59;9.30;99.90
51783;DHT22;37845;53.196;5.638;2023-02-11T13:19:06;9.30;99.90
51783;DHT22;37845;53.196;5.638;2023-02-11T13:29:20;9.30;99.90
51783;DHT22;37845;53.196;5.638;2023-02-11T13:32:07;9.20;99.90
51783;DHT22;37845;53.196;5.638;2023-02-11T13:37:05;9.30;99.90
51783;DHT22;37845;53.196;5.638;2023-02-11T13:39:37;9.30;99.90
51783;DHT22;37845;53.196;5.638;2023-02-11T13:42:03;9.30;99.90
51783;DHT22;37845;53.196;5.638;2023-02-11T13:44:29;9.30;99.90
51783;DHT22;37845;53.196;5.638;2023-02-11T13:46:59;9.30;99.90
51783;DHT22;37845;53.196;5.638;2023-02-11T13:49:28;9.30;99.90
51783;DHT22;37845;53.196;5.638;2023-02-11T13:51:55;9.30;99.90
51783;DHT22;37845;53.196;5.638;2023-02-11T13:54:22;9.40;99.90
51783;DHT22;37845;53.196;5.638;2023-02-11T14:02:19;9.40;99.90
51783;DHT22;37845;53.196;5.638;2023-02-11T14:10:52;9.40;99.90
51783;DHT22;37845;53.196;5.638;2023-02-11T14:13:29;9.30;99.90
51783;DHT22;37845;53.196;5.638;2023-02-11T14:18:37;9.30;99.90
51783;DHT22;37845;53.196;5.638;2023-02-11T14:23:38;9.30;99.90
51783;DHT22;37845;53.196;5.638;2023-02-11T14:26:27;9.20;99.90
51783;DHT22;37845;53.196;5.638;2023-02-11T14:28:55;9.20;99.90
51783;DHT22;37845;53.196;5.638;2023-02-11T14:42:31;9.20;99.90
51783;DHT22;37845;53.196;5.638;2023-02-11T14:45:03;9.20;99.90
51783;DHT22;37845;53.196;5.638;2023-02-11T14:48:13;9.20;99.90
51783;DHT22;37845;53.196;5.638;2023-02-11T14:50:41;9.10;99.90
51783;DHT22;37845;53.196;5.638;2023-02-11T14:53:05;9.10;99.90
51783;DHT22;37845;53.196;5.638;2023-02-11T14:55:32;9.10;99.90
51783;DHT22;37845;53.196;5.638;2023-02-11T15:00:45;9.00;99.90
51783;DHT22;37845;53.196;5.638;2023-02-11T15:03:23;9.00;99.90
51783;DHT22;37845;53.196;5.638;2023-02-11T15:05:52;9.90;99.90
51783;DHT22;37845;53.196;5.638;2023-02-11T15:08:18;9.00;99.90
51783;DHT22;37845;53.196;5.638;2023-02-11T15:10:44;9.00;99.90
51783;DHT22;37845;53.196;5.638;2023-02-11T15:13:17;9.00;99.90
51783;DHT22;37845;53.196;5.638;2023-02-11T15:15:44;8.90;99.90
51783;DHT22;37845;53.196;5.638;2023-02-11T15:18:16;8.90;99.90
51783;DHT22;37845;53.196;5.638;2023-02-11T15:20:45;8.80;99.90
51783;DHT22;37845;53.196;5.638;2023-02-11T15:23:13;8.80;99.90
51783;DHT22;37845;53.196;5.638;2023-02-11T15:25:44;8.80;99.90
51783;DHT22;37845;53.196;5.638;2023-02-11T15:28:26;8.70;99.90
51783;DHT22;37845;53.196;5.638;2023-02-11T15:30:58;8.70;99.90
51783;DHT22;37845;53.196;5.638;2023-02-11T15:33:24;8.70;99.90
51783;DHT22;37845;53.196;5.638;2023-02-11T15:35:50;8.70;99.90
51783;DHT22;37845;53.196;5.638;2023-02-11T15:38:16;8.70;99.90
51783;DHT22;37845;53.196;5.638;2023-02-11T15:40:52;8.70;99.90
51783;DHT22;37845;53.196;5.638;2023-02-11T15:43:18;8.60;99.90
51783;DHT22;37845;53.196;5.638;2023-02-11T15:50:42;8.60;99.90
51783;DHT22;37845;53.196;5.638;2023-02-11T15:55:39;8.50;99.90
51783;DHT22;37845;53.196;5.638;2023-02-11T15:58:06;8.50;99.90
51783;DHT22;37845;53.196;5.638;2023-02-11T16:00:37;8.40;99.90
51783;DHT22;37845;53.196;5.638;2023-02-11T16:03:17;8.40;99.90
51783;DHT22;37845;53.196;5.638;2023-02-11T16:05:44;8.40;99.90
51783;DHT22;37845;53.196;5.638;2023-02-11T16:08:20;8.40;99.90
51783;DHT22;37845;53.196;5.638;2023-02-11T16:10:59;8.30;99.90
51783;DHT22;37845;53.196;5.638;2023-02-11T16:13:28;8.20;99.90
51783;DHT22;37845;53.196;5.638;2023-02-11T16:16:04;8.20;99.90
51783;DHT22;37845;53.196;5.638;2023-02-11T16:18:49;8.10;99.90
51783;DHT22;37845;53.196;5.638;2023-02-11T16:21:15;8.10;99.90
51783;DHT22;37845;53.196;5.638;2023-02-11T16:23:42;8.30;99.90
51783;DHT22;37845;53.196;5.638;2023-02-11T16:26:18;6.90;99.90
51783;DHT22;37845;53.196;5.638;2023-02-11T16:28:45;8.00;99.90
51783;DHT22;37845;53.196;5.638;2023-02-11T16:31:11;8.00;99.90
51783;DHT22;37845;53.196;5.638;2023-02-11T16:33:36;8.00;99.90
51783;DHT22;37845;53.196;5.638;2023-02-11T16:36:08;8.00;99.90
51783;DHT22;37845;53.196;5.638;2023-02-11T16:38:34;8.00;99.90
51783;DHT22;37845;53.196;5.638;2023-02-11T16:41:00;8.00;99.90
51783;DHT22;37845;53.196;5.638;2023-02-11T16:43:25;8.50;99.90
51783;DHT22;37845;53.196;5.638;2023-02-11T16:45:51;7.90;99.90
51783;DHT22;37845;53.196;5.638;2023-02-11T16:48:17;7.90;99.90
51783;DHT22;37845;53.196;5.638;2023-02-11T16:50:44;7.90;99.90
51783;DHT22;37845;53.196;5.638;2023-02-11T16:53:11;7.80;99.90
51783;DHT22;37845;53.196;5.638;2023-02-11T16:55:37;7.80;99.90
51783;DHT22;37845;53.196;5.638;2023-02-11T16:58:03;7.80;99.90
51783;DHT22;37845;53.196;5.638;2023-02-11T17:00:29;7.70;99.90
51783;DHT22;37845;53.196;5.638;2023-02-11T17:02:54;8.30;99.90
51783;DHT22;37845;53.196;5.638;2023-02-11T17:05:21;7.60;99.90
51783;DHT22;37845;53.196;5.638;2023-02-11T17:07:50;7.60;99.90
51783;DHT22;37845;53.196;5.638;2023-02-11T17:10:17;7.60;99.90
51783;DHT22;37845;53.196;5.638;2023-02-11T17:12:43;7.60;99.90
51783;DHT22;37845;53.196;5.638;2023-02-11T17:15:08;7.50;99.90
51783;DHT22;37845;53.196;5.638;2023-02-11T17:17:34;8.30;99.90
51783;DHT22;37845;53.196;5.638;2023-02-11T17:20:00;7.50;99.90
51783;DHT22;37845;53.196;5.638;2023-02-11T17:22:25;7.50;99.90
51783;DHT22;37845;53.196;5.638;2023-02-11T17:24:51;7.50;99.90
51783;DHT22;37845;53.196;5.638;2023-02-11T17:27:17;7.50;99.90
51783;DHT22;37845;53.196;5.638;2023-02-11T17:29:49;7.50;99.90
51783;DHT22;37845;53.196;5.638;2023-02-11T17:32:14;7.30;99.90
51783;DHT22;37845;53.196;5.638;2023-02-11T17:34:40;7.40;99.90
51783;DHT22;37845;53.196;5.638;2023-02-11T17:37:06;7.40;99.90
51783;DHT22;37845;53.196;5.638;2023-02-11T17:39:38;7.40;99.90
51783;DHT22;37845;53.196;5.638;2023-02-11T17:42:04;7.40;99.90
51783;DHT22;37845;53.196;5.638;2023-02-11T17:44:31;7.40;99.90
51783;DHT22;37845;53.196;5.638;2023-02-11T17:46:56;7.30;99.90
51783;DHT22;37845;53.196;5.638;2023-02-11T17:49:22;7.40;99.90
51783;DHT22;37845;53.196;5.638;2023-02-11T17:51:47;7.50;99.90
51783;DHT22;37845;53.196;5.638;2023-02-11T17:54:14;7.30;99.90
51783;DHT22;37845;53.196;5.638;2023-02-11T17:56:51;7.30;99.90
51783;DHT22;37845;53.196;5.638;2023-02-11T17:59:18;7.30;99.90
51783;DHT22;37845;53.196;5.638;2023-02-11T18:01:46;7.20;99.90
51783;DHT22;37845;53.196;5.638;2023-02-11T18:04:13;7.20;99.90
51783;DHT22;37845;53.196;5.638;2023-02-11T18:06:39;7.20;99.90
51783;DHT22;37845;53.196;5.638;2023-02-11T18:09:04;7.50;99.90
51783;DHT22;37845;53.196;5.638;2023-02-11T18:11:32;7.10;99.90
51783;DHT22;37845;53.196;5.638;2023-02-11T18:13:58;7.10;99.90
51783;DHT22;37845;53.196;5.638;2023-02-11T18:16:36;7.10;99.90
51783;DHT22;37845;53.196;5.638;2023-02-11T18:19:03;7.10;99.90
51783;DHT22;37845;53.196;5.638;2023-02-11T18:21:33;7.00;99.90
51783;DHT22;37845;53.196;5.638;2023-02-11T18:23:59;7.10;99.90
51783;DHT22;37845;53.196;5.638;2023-02-11T18:26:24;7.80;99.90
51783;DHT22;37845;53.196;5.638;2023-02-11T18:28:52;7.10;99.90